createdAt,value
2018-07-01T00:00:19.096Z,1.10
2018-07-01T00:01:19.032Z,1.00
2018-07-01T00:02:19.027Z,1.30
2018-07-01T00:03:19.013Z,1.20
2018-07-01T00:04:19.004Z,1.30
2018-07-01T00:05:18.994Z,1.20
2018-07-01T00:06:18.999Z,1.10
2018-07-01T00:07:18.967Z,1.30
2018-07-01T00:08:18.954Z,1.20
2018-07-01T00:09:18.950Z,1.20
2018-07-01T00:10:18.948Z,1.10
2018-07-01T00:11:18.951Z,1.10
2018-07-01T00:12:18.911Z,1.10
2018-07-01T00:13:18.900Z,1.30
2018-07-01T00:14:18.891Z,1.00
2018-07-01T00:15:18.883Z,1.30
2018-07-01T00:16:18.875Z,1.20
2018-07-01T00:17:18.872Z,1.20
2018-07-01T00:18:18.851Z,1.10
2018-07-01T00:19:18.844Z,1.40
2018-07-01T00:20:18.826Z,1.10
2018-07-01T00:21:18.814Z,1.10
2018-07-01T00:22:18.810Z,1.30
2018-07-01T00:23:18.797Z,1.10
2018-07-01T00:24:18.792Z,1.00
2018-07-01T00:25:18.773Z,1.00
2018-07-01T00:26:18.763Z,1.20
2018-07-01T00:27:18.760Z,1.00
2018-07-01T00:28:18.746Z,1.00
2018-07-01T00:29:18.735Z,1.10
2018-07-01T00:30:18.722Z,1.20
2018-07-01T00:31:18.710Z,1.00
2018-07-01T00:32:18.699Z,1.10
2018-07-01T00:33:18.685Z,1.10
2018-07-01T00:34:18.678Z,1.10
2018-07-01T00:35:18.668Z,0.90
2018-07-01T00:36:18.682Z,1.00
2018-07-01T00:37:18.652Z,1.00
2018-07-01T00:38:18.644Z,1.20
2018-07-01T00:39:18.626Z,1.00
2018-07-01T00:40:18.611Z,1.20
2018-07-01T00:41:18.609Z,0.90
2018-07-01T00:42:18.618Z,1.00
2018-07-01T00:43:18.588Z,1.00
2018-07-01T00:44:18.570Z,0.90
2018-07-01T00:45:18.559Z,1.00
2018-07-01T00:46:18.547Z,1.10
2018-07-01T00:47:18.540Z,1.30
2018-07-01T00:48:18.533Z,1.10
2018-07-01T00:49:18.512Z,1.00
2018-07-01T00:50:18.504Z,1.00
2018-07-01T00:51:18.498Z,1.00
2018-07-01T00:52:18.488Z,1.00
2018-07-01T00:53:18.495Z,1.00
2018-07-01T00:54:18.463Z,0.90
2018-07-01T00:55:18.451Z,1.00
2018-07-01T00:56:18.470Z,1.10
2018-07-01T00:57:18.434Z,1.10
2018-07-01T00:58:18.422Z,1.10
2018-07-01T00:59:18.408Z,1.10
2018-07-01T01:00:18.394Z,0.90
2018-07-01T01:01:18.385Z,1.00
2018-07-01T01:02:18.375Z,1.00
2018-07-01T01:03:18.386Z,1.00
2018-07-01T01:04:18.358Z,1.00
2018-07-01T01:05:18.349Z,1.00
2018-07-01T01:06:18.334Z,1.10
2018-07-01T01:07:18.325Z,1.20
2018-07-01T01:08:18.312Z,1.10
2018-07-01T01:09:18.296Z,0.90
2018-07-01T01:10:18.305Z,1.10
2018-07-01T01:11:18.280Z,1.00
2018-07-01T01:12:18.271Z,1.00
2018-07-01T01:13:18.281Z,1.00
2018-07-01T01:14:18.245Z,0.90
2018-07-01T01:15:18.236Z,1.00
2018-07-01T01:16:18.236Z,1.00
2018-07-01T01:17:18.224Z,0.90
2018-07-01T01:18:18.204Z,1.10
2018-07-01T01:19:18.193Z,1.00
2018-07-01T01:20:18.178Z,1.10
2018-07-01T01:21:18.166Z,1.20
2018-07-01T01:22:18.160Z,1.10
2018-07-01T01:23:18.151Z,1.00
2018-07-01T01:24:18.160Z,1.00
2018-07-01T01:25:18.131Z,1.00
2018-07-01T01:26:18.118Z,1.10
2018-07-01T01:27:18.105Z,1.20
2018-07-01T01:28:18.091Z,1.00
2018-07-01T01:29:18.115Z,1.00
2018-07-01T01:30:18.073Z,1.00
2018-07-01T01:31:18.077Z,1.00
2018-07-01T01:32:18.056Z,1.10
2018-07-01T01:33:18.045Z,1.10
2018-07-01T01:34:18.035Z,1.10
2018-07-01T01:35:18.025Z,1.00
2018-07-01T01:36:18.010Z,1.10
2018-07-01T01:37:17.994Z,1.10
2018-07-01T01:38:17.987Z,1.00
2018-07-01T01:39:17.982Z,1.00
2018-07-01T01:40:17.969Z,1.10
2018-07-01T01:41:17.960Z,1.20
2018-07-01T01:42:17.948Z,0.90
2018-07-01T01:43:17.937Z,1.00
2018-07-01T01:44:17.919Z,1.00
2018-07-01T01:45:17.917Z,0.90
2018-07-01T01:46:17.904Z,1.00
2018-07-01T01:47:17.889Z,1.00
2018-07-01T01:48:17.878Z,1.30
2018-07-01T01:49:17.864Z,1.00
2018-07-01T01:50:17.857Z,1.00
2018-07-01T01:51:17.852Z,1.00
2018-07-01T01:52:17.841Z,1.00
2018-07-01T01:53:17.831Z,1.00
2018-07-01T01:54:17.830Z,0.90
2018-07-01T01:55:17.803Z,1.00
2018-07-01T01:56:17.792Z,0.90
2018-07-01T01:57:17.779Z,1.10
2018-07-01T01:58:17.771Z,0.90
2018-07-01T01:59:17.765Z,0.90
2018-07-01T02:00:17.754Z,0.90
2018-07-01T02:01:17.755Z,0.90
2018-07-01T02:02:17.728Z,1.00
2018-07-01T02:03:17.718Z,1.00
2018-07-01T02:04:17.710Z,1.00
2018-07-01T02:05:17.700Z,1.00
2018-07-01T02:06:17.735Z,1.10
2018-07-01T02:07:17.680Z,1.00
2018-07-01T02:08:17.660Z,1.00
2018-07-01T02:09:17.648Z,0.90
2018-07-01T02:10:17.640Z,0.90
2018-07-01T02:11:17.631Z,0.90
2018-07-01T02:12:17.626Z,0.90
2018-07-01T02:13:17.613Z,0.80
2018-07-01T02:14:17.607Z,1.10
2018-07-01T02:15:17.587Z,0.90
2018-07-01T02:16:17.573Z,0.90
2018-07-01T02:17:17.572Z,1.00
2018-07-01T02:18:17.564Z,1.20
2018-07-01T02:19:17.546Z,1.00
2018-07-01T02:20:17.531Z,0.90
2018-07-01T02:21:17.530Z,1.10
2018-07-01T02:22:17.517Z,0.90
2018-07-01T02:23:17.503Z,1.10
2018-07-01T02:24:17.496Z,1.00
2018-07-01T02:25:17.492Z,0.80
2018-07-01T02:26:17.470Z,0.90
2018-07-01T02:27:17.483Z,0.90
2018-07-01T02:28:17.446Z,1.10
2018-07-01T02:29:17.432Z,0.90
2018-07-01T02:30:17.424Z,0.90
2018-07-01T02:31:17.415Z,0.90
2018-07-01T02:32:17.413Z,1.10
2018-07-01T02:33:17.392Z,0.90
2018-07-01T02:34:17.406Z,0.80
2018-07-01T02:35:17.423Z,1.00
2018-07-01T02:36:17.363Z,1.10
2018-07-01T02:37:17.353Z,0.90
2018-07-01T02:38:17.351Z,1.10
2018-07-01T02:39:17.325Z,0.90
2018-07-01T02:40:17.312Z,1.10
2018-07-01T02:41:17.308Z,1.00
2018-07-01T02:42:17.293Z,1.00
2018-07-01T02:43:17.335Z,1.30
2018-07-01T02:44:17.277Z,0.90
2018-07-01T02:45:17.266Z,1.00
2018-07-01T02:46:17.253Z,1.10
2018-07-01T02:47:17.239Z,0.90
2018-07-01T02:48:17.252Z,1.00
2018-07-01T02:49:17.227Z,0.90
2018-07-01T02:50:17.225Z,0.80
2018-07-01T02:51:17.196Z,1.10
2018-07-01T02:52:17.183Z,1.00
2018-07-01T02:53:17.201Z,1.10
2018-07-01T02:54:17.166Z,1.00
2018-07-01T02:55:17.154Z,1.10
2018-07-01T02:56:17.148Z,1.00
2018-07-01T02:57:17.136Z,1.10
2018-07-01T02:58:17.126Z,1.00
2018-07-01T02:59:17.115Z,1.10
2018-07-01T03:00:17.100Z,1.00
2018-07-01T03:01:17.085Z,1.00
2018-07-01T03:02:17.078Z,1.00
2018-07-01T03:03:17.068Z,0.90
2018-07-01T03:04:17.061Z,1.20
2018-07-01T03:05:17.042Z,1.10
2018-07-01T03:06:17.035Z,1.00
2018-07-01T03:07:17.026Z,1.00
2018-07-01T03:08:17.018Z,1.10
2018-07-01T03:09:17.008Z,1.10
2018-07-01T03:10:16.993Z,0.90
2018-07-01T03:11:16.979Z,1.00
2018-07-01T03:12:16.973Z,1.00
2018-07-01T03:13:16.964Z,1.10
2018-07-01T03:14:16.991Z,1.00
2018-07-01T03:15:16.954Z,1.00
2018-07-01T03:16:16.930Z,1.00
2018-07-01T03:17:16.950Z,1.10
2018-07-01T03:18:16.906Z,1.00
2018-07-01T03:19:16.968Z,1.00
2018-07-01T03:20:16.881Z,1.00
2018-07-01T03:21:16.875Z,1.10
2018-07-01T03:22:16.869Z,1.00
2018-07-01T03:23:16.860Z,0.90
2018-07-01T03:24:16.839Z,0.90
2018-07-01T03:25:16.850Z,1.10
2018-07-01T03:26:16.838Z,0.90
2018-07-01T03:27:16.810Z,1.20
2018-07-01T03:28:16.805Z,0.90
2018-07-01T03:29:16.796Z,0.90
2018-07-01T03:30:16.810Z,1.00
2018-07-01T03:31:16.768Z,1.10
2018-07-01T03:32:16.755Z,1.10
2018-07-01T03:33:16.740Z,1.10
2018-07-01T03:34:16.741Z,1.20
2018-07-01T03:35:16.750Z,1.20
2018-07-01T03:36:16.720Z,1.20
2018-07-01T03:37:16.697Z,1.20
2018-07-01T03:38:16.692Z,1.20
2018-07-01T03:39:16.687Z,1.20
2018-07-01T03:40:16.673Z,1.20
2018-07-01T03:41:16.666Z,1.30
2018-07-01T03:42:16.649Z,1.20
2018-07-01T03:43:16.635Z,1.20
2018-07-01T03:44:16.625Z,1.30
2018-07-01T03:45:16.613Z,1.40
2018-07-01T03:46:16.631Z,1.20
2018-07-01T03:47:16.632Z,1.10
2018-07-01T03:48:16.587Z,1.30
2018-07-01T03:49:16.583Z,1.30
2018-07-01T03:50:16.607Z,1.10
2018-07-01T03:51:16.554Z,1.40
2018-07-01T03:52:16.540Z,1.30
2018-07-01T03:53:16.533Z,1.40
2018-07-01T03:54:16.520Z,1.40
2018-07-01T03:55:16.506Z,1.30
2018-07-01T03:56:16.494Z,1.50
2018-07-01T03:57:16.483Z,1.60
2018-07-01T03:58:16.475Z,1.60
2018-07-01T03:59:16.465Z,1.50
2018-07-01T04:00:16.484Z,1.70
2018-07-01T04:01:16.448Z,1.70
2018-07-01T04:02:16.442Z,2.10
2018-07-01T04:03:16.423Z,2.10
2018-07-01T04:04:16.408Z,2.50
2018-07-01T04:05:16.400Z,2.20
2018-07-01T04:06:16.386Z,2.40
2018-07-01T04:07:16.383Z,2.80
2018-07-01T04:08:16.369Z,3.00
2018-07-01T04:09:16.351Z,3.10
2018-07-01T04:10:16.344Z,3.30
2018-07-01T04:11:16.362Z,3.30
2018-07-01T04:12:16.360Z,3.40
2018-07-01T04:13:16.314Z,3.50
2018-07-01T04:14:16.301Z,3.60
2018-07-01T04:15:16.288Z,4.00
2018-07-01T04:16:16.275Z,3.90
2018-07-01T04:17:16.264Z,4.40
2018-07-01T04:18:16.258Z,4.40
2018-07-01T04:19:16.248Z,4.50
2018-07-01T04:20:16.239Z,4.70
2018-07-01T04:21:16.228Z,4.30
2018-07-01T04:22:16.225Z,4.70
2018-07-01T04:23:16.208Z,4.00
2018-07-01T04:24:16.192Z,4.30
2018-07-01T04:25:16.194Z,3.60
2018-07-01T04:26:16.171Z,3.80
2018-07-01T04:27:16.158Z,3.50
2018-07-01T04:28:16.149Z,3.50
2018-07-01T04:29:16.134Z,3.50
2018-07-01T04:30:16.126Z,3.60
2018-07-01T04:31:16.153Z,3.30
2018-07-01T04:32:16.113Z,3.20
2018-07-01T04:33:16.126Z,3.20
2018-07-01T04:34:16.096Z,3.10
2018-07-01T04:35:16.074Z,2.70
2018-07-01T04:36:16.059Z,2.90
2018-07-01T04:37:16.050Z,2.90
2018-07-01T04:38:16.041Z,2.60
2018-07-01T04:39:16.081Z,2.90
2018-07-01T04:40:16.063Z,2.60
2018-07-01T04:41:16.071Z,2.50
2018-07-01T04:42:16.183Z,2.70
2018-07-01T04:43:16.090Z,2.40
2018-07-01T04:44:17.241Z,2.30
2018-07-01T04:45:15.970Z,2.60
2018-07-01T04:46:15.957Z,2.40
2018-07-01T04:47:15.942Z,2.30
2018-07-01T04:48:15.930Z,2.40
2018-07-01T04:49:16.004Z,2.00
2018-07-01T04:50:15.911Z,2.20
2018-07-01T04:51:15.903Z,2.10
2018-07-01T04:52:15.893Z,1.90
2018-07-01T04:53:15.882Z,1.80
2018-07-01T04:54:15.902Z,1.90
2018-07-01T04:55:16.008Z,1.70
2018-07-01T04:56:15.842Z,1.90
2018-07-01T04:57:15.850Z,1.70
2018-07-01T04:58:15.829Z,1.80
2018-07-01T04:59:15.830Z,1.90
2018-07-01T05:00:15.842Z,1.80
2018-07-01T05:01:15.805Z,1.80
2018-07-01T05:02:15.907Z,1.90
2018-07-01T05:03:15.772Z,1.80
2018-07-01T05:04:15.762Z,1.70
2018-07-01T05:05:15.755Z,1.60
2018-07-01T05:06:15.741Z,1.60
2018-07-01T05:07:15.726Z,1.70
2018-07-01T05:08:15.713Z,1.60
2018-07-01T05:09:15.704Z,1.70
2018-07-01T05:10:15.719Z,1.50
2018-07-01T05:11:15.693Z,1.50
2018-07-01T05:12:15.680Z,1.70
2018-07-01T05:13:15.673Z,1.50
2018-07-01T05:14:15.647Z,1.50
2018-07-01T05:15:15.645Z,1.50
2018-07-01T05:16:15.637Z,1.50
2018-07-01T05:17:15.659Z,1.40
2018-07-01T05:18:15.646Z,1.50
2018-07-01T05:19:15.594Z,1.30
2018-07-01T05:20:15.586Z,1.80
2018-07-01T05:21:15.575Z,1.60
2018-07-01T05:22:15.565Z,1.40
2018-07-01T05:23:15.558Z,1.60
2018-07-01T05:24:15.544Z,1.40
2018-07-01T05:25:15.533Z,1.50
2018-07-01T05:26:15.526Z,1.50
2018-07-01T05:27:15.510Z,1.60
2018-07-01T05:28:15.502Z,1.50
2018-07-01T05:29:15.489Z,1.40
2018-07-01T05:30:15.481Z,1.40
2018-07-01T05:31:15.470Z,1.50
2018-07-01T05:32:15.459Z,1.40
2018-07-01T05:33:15.444Z,1.50
2018-07-01T05:34:15.430Z,1.30
2018-07-01T05:35:15.428Z,1.30
2018-07-01T05:36:15.416Z,1.40
2018-07-01T05:37:15.403Z,1.50
2018-07-01T05:38:15.396Z,1.30
2018-07-01T05:39:15.379Z,1.40
2018-07-01T05:40:15.368Z,1.30
2018-07-01T05:41:15.362Z,1.30
2018-07-01T05:42:15.344Z,1.30
2018-07-01T05:43:15.342Z,1.40
2018-07-01T05:44:15.330Z,1.40
2018-07-01T05:45:15.336Z,1.40
2018-07-01T05:46:15.353Z,1.30
2018-07-01T05:47:15.363Z,1.30
2018-07-01T05:48:15.304Z,1.40
2018-07-01T05:49:15.275Z,1.40
2018-07-01T05:50:15.392Z,1.50
2018-07-01T05:51:15.251Z,1.20
2018-07-01T05:52:15.246Z,1.30
2018-07-01T05:53:15.228Z,1.20
2018-07-01T05:54:15.214Z,1.40
2018-07-01T05:55:15.210Z,1.20
2018-07-01T05:56:15.197Z,1.30
2018-07-01T05:57:15.323Z,1.30
2018-07-01T05:58:15.188Z,1.40
2018-07-01T05:59:15.162Z,1.20
2018-07-01T06:00:15.155Z,1.30
2018-07-01T06:01:15.154Z,1.10
2018-07-01T06:02:15.147Z,1.20
2018-07-01T06:03:15.119Z,1.40
2018-07-01T06:04:15.120Z,1.30
2018-07-01T06:05:15.099Z,1.20
2018-07-01T06:06:15.088Z,1.40
2018-07-01T06:07:15.129Z,1.10
2018-07-01T06:08:15.077Z,1.30
2018-07-01T06:09:15.059Z,1.30
2018-07-01T06:10:15.051Z,1.30
2018-07-01T06:11:15.068Z,1.30
2018-07-01T06:12:15.027Z,1.30
2018-07-01T06:13:15.017Z,1.30
2018-07-01T06:14:15.001Z,1.30
2018-07-01T06:15:15.036Z,1.30
2018-07-01T06:16:15.013Z,1.30
2018-07-01T06:17:14.969Z,1.40
2018-07-01T06:18:14.959Z,1.20
2018-07-01T06:19:14.959Z,1.00
2018-07-01T06:20:14.941Z,1.20
2018-07-01T06:21:14.933Z,1.30
2018-07-01T06:22:14.919Z,1.30
2018-07-01T06:23:14.943Z,1.10
2018-07-01T06:24:14.910Z,1.10
2018-07-01T06:25:16.115Z,1.10
2018-07-01T06:26:15.329Z,1.30
2018-07-01T06:27:14.993Z,1.20
2018-07-01T06:28:14.918Z,1.10
2018-07-01T06:29:14.844Z,1.10
2018-07-01T06:30:14.844Z,1.30
2018-07-01T06:31:14.811Z,1.20
2018-07-01T06:32:14.806Z,1.20
2018-07-01T06:33:14.797Z,0.90
2018-07-01T06:34:14.786Z,1.10
2018-07-01T06:35:14.768Z,1.10
2018-07-01T06:36:14.759Z,1.10
2018-07-01T06:37:14.752Z,1.10
2018-07-01T06:38:14.808Z,1.00
2018-07-01T06:39:14.754Z,1.20
2018-07-01T06:40:14.719Z,1.10
2018-07-01T06:41:14.716Z,1.20
2018-07-01T06:42:14.701Z,1.00
2018-07-01T06:43:14.680Z,1.20
2018-07-01T06:44:14.675Z,1.10
2018-07-01T06:45:14.659Z,0.80
2018-07-01T06:46:14.648Z,1.10
2018-07-01T06:47:14.645Z,0.90
2018-07-01T06:48:14.632Z,0.90
2018-07-01T06:49:14.658Z,0.90
2018-07-01T06:50:14.607Z,0.90
2018-07-01T06:51:14.613Z,1.20
2018-07-01T06:52:14.614Z,0.90
2018-07-01T06:53:14.580Z,0.90
2018-07-01T06:54:14.571Z,1.00
2018-07-01T06:55:14.557Z,0.90
2018-07-01T06:56:14.554Z,0.80
2018-07-01T06:57:14.531Z,0.90
2018-07-01T06:58:14.517Z,0.90
2018-07-01T06:59:14.513Z,0.90
2018-07-01T07:00:14.535Z,1.00
2018-07-01T07:01:14.489Z,0.90
2018-07-01T07:02:14.482Z,0.90
2018-07-01T07:03:14.469Z,0.80
2018-07-01T07:04:14.461Z,1.00
2018-07-01T07:05:14.452Z,0.90
2018-07-01T07:06:14.451Z,0.90
2018-07-01T07:07:14.420Z,0.90
2018-07-01T07:08:14.434Z,0.80
2018-07-01T07:09:14.517Z,0.80
2018-07-01T07:10:14.394Z,0.90
2018-07-01T07:11:14.387Z,0.80
2018-07-01T07:12:14.370Z,0.90
2018-07-01T07:13:14.363Z,0.80
2018-07-01T07:14:14.350Z,0.90
2018-07-01T07:15:14.337Z,0.90
2018-07-01T07:16:14.376Z,0.80
2018-07-01T07:17:14.326Z,0.80
2018-07-01T07:18:14.328Z,0.80
2018-07-01T07:19:14.319Z,1.00
2018-07-01T07:20:14.357Z,0.80
2018-07-01T07:21:14.271Z,0.90
2018-07-01T07:22:14.268Z,0.90
2018-07-01T07:23:14.270Z,0.80
2018-07-01T07:24:14.287Z,0.90
2018-07-01T07:25:14.231Z,0.70
2018-07-01T07:26:14.234Z,0.70
2018-07-01T07:27:14.216Z,0.70
2018-07-01T07:28:14.198Z,0.70
2018-07-01T07:29:14.187Z,0.80
2018-07-01T07:30:14.172Z,0.70
2018-07-01T07:31:14.172Z,0.80
2018-07-01T07:32:14.157Z,0.80
2018-07-01T07:33:14.147Z,0.80
2018-07-01T07:34:14.150Z,0.80
2018-07-01T07:35:14.125Z,1.00
2018-07-01T07:36:14.141Z,0.80
2018-07-01T07:37:14.101Z,0.90
2018-07-01T07:38:14.098Z,0.70
2018-07-01T07:39:14.076Z,0.80
2018-07-01T07:40:14.067Z,0.90
2018-07-01T07:41:14.063Z,0.80
2018-07-01T07:42:14.055Z,0.70
2018-07-01T07:43:14.036Z,0.90
2018-07-01T07:44:14.027Z,0.80
2018-07-01T07:45:14.065Z,0.80
2018-07-01T07:46:14.006Z,0.90
2018-07-01T07:47:13.995Z,0.90
2018-07-01T07:48:13.980Z,0.80
2018-07-01T07:49:13.970Z,0.80
2018-07-01T07:50:13.958Z,0.80
2018-07-01T07:51:13.953Z,0.60
2018-07-01T07:52:13.984Z,0.90
2018-07-01T07:53:13.964Z,0.80
2018-07-01T07:54:13.920Z,0.70
2018-07-01T07:55:13.913Z,0.80
2018-07-01T07:56:13.903Z,0.80
2018-07-01T07:57:13.912Z,0.90
2018-07-01T07:58:13.875Z,0.80
2018-07-01T07:59:13.860Z,0.80
2018-07-01T08:00:13.855Z,0.90
2018-07-01T08:01:13.839Z,0.90
2018-07-01T08:02:13.860Z,0.70
2018-07-01T08:03:13.835Z,1.00
2018-07-01T08:04:13.833Z,0.70
2018-07-01T08:05:13.798Z,0.70
2018-07-01T08:06:13.793Z,0.80
2018-07-01T08:07:13.821Z,0.80
2018-07-01T08:08:13.767Z,0.70
2018-07-01T08:09:13.755Z,0.90
2018-07-01T08:10:13.752Z,0.90
2018-07-01T08:11:13.731Z,0.70
2018-07-01T08:12:13.748Z,0.70
2018-07-01T08:13:13.739Z,0.80
2018-07-01T08:14:13.696Z,0.80
2018-07-01T08:15:13.699Z,0.90
2018-07-01T08:16:13.679Z,0.70
2018-07-01T08:17:13.675Z,0.80
2018-07-01T08:18:13.660Z,0.90
2018-07-01T08:19:13.652Z,0.80
2018-07-01T08:20:13.635Z,0.60
2018-07-01T08:21:13.624Z,0.70
2018-07-01T08:22:13.611Z,0.80
2018-07-01T08:23:13.609Z,0.80
2018-07-01T08:24:13.610Z,0.70
2018-07-01T08:25:13.582Z,0.60
2018-07-01T08:26:13.569Z,0.80
2018-07-01T08:27:13.570Z,0.70
2018-07-01T08:28:13.568Z,0.70
2018-07-01T08:29:13.608Z,0.90
2018-07-01T08:30:13.541Z,0.80
2018-07-01T08:31:13.516Z,0.70
2018-07-01T08:32:13.507Z,0.90
2018-07-01T08:33:13.498Z,0.80
2018-07-01T08:34:13.506Z,0.80
2018-07-01T08:35:13.481Z,0.80
2018-07-01T08:36:13.468Z,0.70
2018-07-01T08:37:13.460Z,0.90
2018-07-01T08:38:13.457Z,0.70
2018-07-01T08:39:13.474Z,0.80
2018-07-01T08:40:13.442Z,0.90
2018-07-01T08:41:13.418Z,0.80
2018-07-01T08:42:13.412Z,0.80
2018-07-01T08:43:13.394Z,0.70
2018-07-01T08:44:13.387Z,0.70
2018-07-01T08:45:13.399Z,0.80
2018-07-01T08:46:13.374Z,0.90
2018-07-01T08:47:13.363Z,0.80
2018-07-01T08:48:13.355Z,0.90
2018-07-01T08:49:13.347Z,0.80
2018-07-01T08:50:13.334Z,0.70
2018-07-01T08:51:13.327Z,1.00
2018-07-01T08:52:13.312Z,0.90
2018-07-01T08:53:13.314Z,0.90
2018-07-01T08:54:13.290Z,0.80
2018-07-01T08:55:13.296Z,0.80
2018-07-01T08:56:13.277Z,0.90
2018-07-01T08:57:13.265Z,0.80
2018-07-01T08:58:13.250Z,0.80
2018-07-01T08:59:13.257Z,0.90
2018-07-01T09:00:13.271Z,0.80
2018-07-01T09:01:13.235Z,0.90
2018-07-01T09:02:13.218Z,0.90
2018-07-01T09:03:13.204Z,1.00
2018-07-01T09:04:13.194Z,0.80
2018-07-01T09:05:13.199Z,0.90
2018-07-01T09:06:13.174Z,1.00
2018-07-01T09:07:13.181Z,0.90
2018-07-01T09:08:13.171Z,0.90
2018-07-01T09:09:13.148Z,1.00
2018-07-01T09:10:13.196Z,0.80
2018-07-01T09:11:13.179Z,0.80
2018-07-01T09:12:13.155Z,1.00
2018-07-01T09:13:13.155Z,0.90
2018-07-01T09:14:13.144Z,0.90
2018-07-01T09:15:13.162Z,1.00
2018-07-01T09:16:13.121Z,0.90
2018-07-01T09:17:13.140Z,1.00
2018-07-01T09:18:13.058Z,1.10
2018-07-01T09:19:13.055Z,1.00
2018-07-01T09:20:13.044Z,1.00
2018-07-01T09:21:13.079Z,0.90
2018-07-01T09:22:13.029Z,0.90
2018-07-01T09:23:13.020Z,0.80
2018-07-01T09:24:13.005Z,1.00
2018-07-01T09:25:12.996Z,1.20
2018-07-01T09:26:12.985Z,1.00
2018-07-01T09:27:12.976Z,0.80
2018-07-01T09:28:12.964Z,0.90
2018-07-01T09:29:12.958Z,0.90
2018-07-01T09:30:12.948Z,0.90
2018-07-01T09:31:12.938Z,0.90
2018-07-01T09:32:12.934Z,1.00
2018-07-01T09:33:12.914Z,1.10
2018-07-01T09:34:12.907Z,1.10
2018-07-01T09:35:12.900Z,1.00
2018-07-01T09:36:12.896Z,0.90
2018-07-01T09:37:12.888Z,1.00
2018-07-01T09:38:12.878Z,1.20
2018-07-01T09:39:12.870Z,0.90
2018-07-01T09:40:12.849Z,0.90
2018-07-01T09:41:12.840Z,1.00
2018-07-01T09:42:12.861Z,0.90
2018-07-01T09:43:12.855Z,1.00
2018-07-01T09:44:12.819Z,1.00
2018-07-01T09:45:12.807Z,1.00
2018-07-01T09:46:12.798Z,0.90
2018-07-01T09:47:12.789Z,1.10
2018-07-01T09:48:12.787Z,1.00
2018-07-01T09:49:12.770Z,1.00
2018-07-01T09:50:12.823Z,1.00
2018-07-01T09:51:12.744Z,1.00
2018-07-01T09:52:12.733Z,0.90
2018-07-01T09:53:12.724Z,0.90
2018-07-01T09:54:12.714Z,0.90
2018-07-01T09:55:12.706Z,1.00
2018-07-01T09:56:12.719Z,0.90
2018-07-01T09:57:12.694Z,0.90
2018-07-01T09:58:12.689Z,0.90
2018-07-01T09:59:12.665Z,1.00
2018-07-01T10:00:12.650Z,0.90
2018-07-01T10:01:12.647Z,1.10
2018-07-01T10:02:12.634Z,1.00
2018-07-01T10:03:12.623Z,0.90
2018-07-01T10:04:12.613Z,1.00
2018-07-01T10:05:12.608Z,1.80
2018-07-01T10:06:12.601Z,0.90
2018-07-01T10:07:12.589Z,1.00
2018-07-01T10:08:12.598Z,0.90
2018-07-01T10:09:12.561Z,1.10
2018-07-01T10:10:12.549Z,0.80
2018-07-01T10:11:12.537Z,0.90
2018-07-01T10:12:12.523Z,0.80
2018-07-01T10:13:12.524Z,0.80
2018-07-01T10:14:12.507Z,0.90
2018-07-01T10:15:12.497Z,0.80
2018-07-01T10:16:12.488Z,1.00
2018-07-01T10:17:12.472Z,0.80
2018-07-01T10:18:12.469Z,1.00
2018-07-01T10:19:12.456Z,0.90
2018-07-01T10:20:12.453Z,0.80
2018-07-01T10:21:12.436Z,1.20
2018-07-01T10:22:12.423Z,1.50
2018-07-01T10:23:12.410Z,1.00
2018-07-01T10:24:12.435Z,1.20
2018-07-01T10:25:12.386Z,0.80
2018-07-01T10:26:12.386Z,0.80
2018-07-01T10:27:12.391Z,0.90
2018-07-01T10:28:12.363Z,0.90
2018-07-01T10:29:12.365Z,0.90
2018-07-01T10:30:12.346Z,0.80
2018-07-01T10:31:12.328Z,0.80
2018-07-01T10:32:12.330Z,0.70
2018-07-01T10:33:12.346Z,0.70
2018-07-01T10:34:12.296Z,0.80
2018-07-01T10:35:12.288Z,0.70
2018-07-01T10:36:12.272Z,1.00
2018-07-01T10:37:12.264Z,1.00
2018-07-01T10:38:12.255Z,0.80
2018-07-01T10:39:12.252Z,1.00
2018-07-01T10:40:12.291Z,0.90
2018-07-01T10:41:12.228Z,0.90
2018-07-01T10:42:12.228Z,0.90
2018-07-01T10:43:12.204Z,0.90
2018-07-01T10:44:12.191Z,1.00
2018-07-01T10:45:12.217Z,1.00
2018-07-01T10:46:12.176Z,0.90
2018-07-01T10:47:12.172Z,1.00
2018-07-01T10:48:12.159Z,0.80
2018-07-01T10:49:12.142Z,0.90
2018-07-01T10:50:12.136Z,0.90
2018-07-01T10:51:12.182Z,1.00
2018-07-01T10:52:12.117Z,0.90
2018-07-01T10:53:12.113Z,0.90
2018-07-01T10:54:12.093Z,1.10
2018-07-01T10:55:12.086Z,0.90
2018-07-01T10:56:12.071Z,0.80
2018-07-01T10:57:12.058Z,0.90
2018-07-01T10:58:12.050Z,0.80
2018-07-01T10:59:12.063Z,1.00
2018-07-01T11:00:12.033Z,1.00
2018-07-01T11:01:12.035Z,1.10
2018-07-01T11:02:12.011Z,0.90
2018-07-01T11:03:12.010Z,0.80
2018-07-01T11:04:11.985Z,1.00
2018-07-01T11:05:11.982Z,0.80
2018-07-01T11:06:12.097Z,0.90
2018-07-01T11:07:11.957Z,1.40
2018-07-01T11:08:11.944Z,1.00
2018-07-01T11:09:11.931Z,1.10
2018-07-01T11:10:11.925Z,0.90
2018-07-01T11:11:11.917Z,0.90
2018-07-01T11:12:11.912Z,1.20
2018-07-01T11:13:11.897Z,1.30
2018-07-01T11:14:11.884Z,1.10
2018-07-01T11:15:11.874Z,1.00
2018-07-01T11:16:11.868Z,1.00
2018-07-01T11:17:11.869Z,1.00
2018-07-01T11:18:11.843Z,1.10
2018-07-01T11:19:11.835Z,1.00
2018-07-01T11:20:11.852Z,1.00
2018-07-01T11:21:11.813Z,0.90
2018-07-01T11:22:11.859Z,1.00
2018-07-01T11:23:11.802Z,1.00
2018-07-01T11:24:11.792Z,1.10
2018-07-01T11:25:11.783Z,1.00
2018-07-01T11:26:11.775Z,1.30
2018-07-01T11:27:12.004Z,1.20
2018-07-01T11:28:11.753Z,1.20
2018-07-01T11:29:11.741Z,1.20
2018-07-01T11:30:11.737Z,1.10
2018-07-01T11:31:11.732Z,1.20
2018-07-01T11:32:11.730Z,1.20
2018-07-01T11:33:11.758Z,1.50
2018-07-01T11:34:11.725Z,1.20
2018-07-01T11:35:11.832Z,1.30
2018-07-01T11:36:11.727Z,1.20
2018-07-01T11:37:11.681Z,1.00
2018-07-01T11:38:11.735Z,1.10
2018-07-01T11:39:11.666Z,1.10
2018-07-01T11:40:11.656Z,0.90
2018-07-01T11:41:11.643Z,1.10
2018-07-01T11:42:11.636Z,1.00
2018-07-01T11:43:11.647Z,1.00
2018-07-01T11:44:11.626Z,1.20
2018-07-01T11:45:11.624Z,1.00
2018-07-01T11:46:11.608Z,1.00
2018-07-01T11:47:11.598Z,1.20
2018-07-01T11:48:11.606Z,1.10
2018-07-01T11:49:11.580Z,1.00
2018-07-01T11:50:11.574Z,1.20
2018-07-01T11:51:11.575Z,1.20
2018-07-01T11:52:11.589Z,1.10
2018-07-01T11:53:11.587Z,1.30
2018-07-01T11:54:11.547Z,1.30
2018-07-01T11:55:11.543Z,1.30
2018-07-01T11:56:11.581Z,1.40
2018-07-01T11:57:11.528Z,1.40
2018-07-01T11:58:11.571Z,4.00
2018-07-01T11:59:11.513Z,6.00
2018-07-01T12:00:11.499Z,5.40
2018-07-01T12:01:11.492Z,3.50
2018-07-01T12:02:11.486Z,1.60
2018-07-01T12:03:11.482Z,1.40
2018-07-01T12:04:11.505Z,1.30
2018-07-01T12:05:16.656Z,1.80
2018-07-01T12:06:11.459Z,1.60
2018-07-01T12:07:11.449Z,1.80
2018-07-01T12:08:11.442Z,1.60
2018-07-01T12:09:11.453Z,1.50
2018-07-01T12:10:11.436Z,1.40
2018-07-01T12:11:11.420Z,1.60
2018-07-01T12:12:11.412Z,1.50
2018-07-01T12:13:11.404Z,1.50
2018-07-01T12:14:11.399Z,1.30
2018-07-01T12:15:11.407Z,1.40
2018-07-01T12:16:11.407Z,1.40
2018-07-01T12:17:11.382Z,1.30
2018-07-01T12:18:11.371Z,1.20
2018-07-01T12:19:11.361Z,1.30
2018-07-01T12:20:11.381Z,1.40
2018-07-01T12:21:11.345Z,1.50
2018-07-01T12:22:11.340Z,1.50
2018-07-01T12:23:11.356Z,1.40
2018-07-01T12:24:11.332Z,1.40
2018-07-01T12:25:11.314Z,1.20
2018-07-01T12:26:11.316Z,1.30
2018-07-01T12:27:11.305Z,1.30
2018-07-01T12:28:11.302Z,1.30
2018-07-01T12:29:11.292Z,1.30
2018-07-01T12:30:11.285Z,1.20
2018-07-01T12:31:11.277Z,1.10
2018-07-01T12:32:11.263Z,1.20
2018-07-01T12:33:11.256Z,1.40
2018-07-01T12:34:11.253Z,1.10
2018-07-01T12:35:11.246Z,1.20
2018-07-01T12:36:11.287Z,1.30
2018-07-01T12:37:11.278Z,1.10
2018-07-01T12:38:11.270Z,1.20
2018-07-01T12:39:11.218Z,1.20
2018-07-01T12:40:11.205Z,1.10
2018-07-01T12:41:11.223Z,1.10
2018-07-01T12:42:11.333Z,1.20
2018-07-01T12:43:11.185Z,1.10
2018-07-01T12:44:11.175Z,1.00
2018-07-01T12:45:11.168Z,1.10
2018-07-01T12:46:11.189Z,1.00
2018-07-01T12:47:11.158Z,1.10
2018-07-01T12:48:11.153Z,1.20
2018-07-01T12:49:11.146Z,1.30
2018-07-01T12:50:11.136Z,1.30
2018-07-01T12:51:11.126Z,1.30
2018-07-01T12:52:11.137Z,1.30
2018-07-01T12:53:11.117Z,1.30
2018-07-01T12:54:11.104Z,1.20
2018-07-01T12:55:11.103Z,1.20
2018-07-01T12:56:11.112Z,1.10
2018-07-01T12:57:11.101Z,1.20
2018-07-01T12:58:11.074Z,1.30
2018-07-01T12:59:11.071Z,1.20
2018-07-01T13:00:11.071Z,1.10
2018-07-01T13:01:11.059Z,1.10
2018-07-01T13:02:11.075Z,1.10
2018-07-01T13:03:11.047Z,1.10
2018-07-01T13:04:11.028Z,1.20
2018-07-01T13:05:11.022Z,1.10
2018-07-01T13:06:11.015Z,1.10
2018-07-01T13:07:11.017Z,1.40
2018-07-01T13:08:11.006Z,1.30
2018-07-01T13:09:10.997Z,1.10
2018-07-01T13:10:10.988Z,1.10
2018-07-01T13:11:10.978Z,1.20
2018-07-01T13:12:11.014Z,1.30
2018-07-01T13:13:10.970Z,1.10
2018-07-01T13:14:10.965Z,1.20
2018-07-01T13:15:10.968Z,1.10
2018-07-01T13:16:10.951Z,1.20
2018-07-01T13:17:10.931Z,1.30
2018-07-01T13:18:10.946Z,1.10